createdAt,value
2023-04-07T00:02:14.706Z,10.10
2023-04-07T00:04:41.811Z,10.00
2023-04-07T00:07:08.774Z,10.00
2023-04-07T00:09:36.931Z,10.10
2023-04-07T00:12:04.111Z,10.10
2023-04-07T00:14:31.204Z,10.20
2023-04-07T00:16:58.194Z,10.10
2023-04-07T00:19:25.369Z,10.20
2023-04-07T00:21:52.338Z,10.00
2023-04-07T00:24:31.006Z,10.10
2023-04-07T00:27:01.083Z,10.10
2023-04-07T00:29:28.195Z,10.10
2023-04-07T00:31:55.375Z,10.10
2023-04-07T00:34:22.311Z,10.10
2023-04-07T00:36:52.430Z,10.10
2023-04-07T00:39:20.711Z,10.00
2023-04-07T00:41:48.290Z,10.00
2023-04-07T00:44:15.372Z,9.90
2023-04-07T00:46:42.554Z,9.90
2023-04-07T00:49:11.369Z,9.90
2023-04-07T00:51:38.577Z,9.90
2023-04-07T00:54:06.155Z,9.80
2023-04-07T00:56:33.238Z,9.90
2023-04-07T00:59:00.671Z,9.90
2023-04-07T01:01:41.197Z,10.00
2023-04-07T01:04:45.071Z,9.90
2023-04-07T01:07:18.798Z,9.90
2023-04-07T01:10:05.737Z,9.90
2023-04-07T01:12:47.712Z,9.80
2023-04-07T01:15:18.395Z,9.80
2023-04-07T01:17:53.298Z,9.80
2023-04-07T01:20:24.655Z,9.90
2023-04-07T01:23:02.604Z,9.80
2023-04-07T01:25:38.698Z,9.90
2023-04-07T01:28:26.961Z,9.90
2023-04-07T01:30:58.849Z,9.90
2023-04-07T01:33:30.387Z,9.80
2023-04-07T01:36:00.048Z,9.80
2023-04-07T01:38:30.084Z,9.80
2023-04-07T01:40:59.123Z,9.80
2023-04-07T01:43:28.458Z,9.70
2023-04-07T01:45:57.208Z,9.70
2023-04-07T01:48:27.336Z,9.80
2023-04-07T01:50:56.183Z,9.80
2023-04-07T01:53:24.030Z,9.80
2023-04-07T01:55:52.350Z,9.80
2023-04-07T01:58:19.288Z,9.80
2023-04-07T02:00:48.574Z,9.80
2023-04-07T02:03:24.206Z,9.80
2023-04-07T02:05:54.546Z,9.80
2023-04-07T02:08:28.840Z,9.80
2023-04-07T02:10:59.581Z,9.90
2023-04-07T02:13:30.993Z,9.90
2023-04-07T02:15:59.092Z,9.80
2023-04-07T02:18:28.101Z,9.80
2023-04-07T02:20:56.404Z,9.80
2023-04-07T02:23:23.306Z,9.90
2023-04-07T02:25:50.344Z,9.90
2023-04-07T02:28:17.474Z,9.90
2023-04-07T02:30:46.098Z,9.80
2023-04-07T02:33:13.012Z,9.80
2023-04-07T02:35:39.868Z,9.90
2023-04-07T02:38:06.793Z,9.80
2023-04-07T02:40:36.690Z,9.80
2023-04-07T02:43:05.090Z,9.80
2023-04-07T02:45:32.044Z,9.80
2023-04-07T02:47:58.964Z,9.70
2023-04-07T02:50:26.190Z,9.70
2023-04-07T02:52:53.160Z,9.70
2023-04-07T02:55:20.211Z,9.70
2023-04-07T02:57:47.243Z,9.70
2023-04-07T03:00:40.458Z,9.70
2023-04-07T03:03:14.004Z,9.70
2023-04-07T03:05:55.558Z,9.80
2023-04-07T03:08:22.639Z,9.80
2023-04-07T03:10:49.751Z,9.70
2023-04-07T03:13:22.618Z,9.80
2023-04-07T03:15:49.494Z,9.80
2023-04-07T03:18:18.354Z,9.80
2023-04-07T03:20:48.338Z,9.70
2023-04-07T03:23:16.785Z,9.70
2023-04-07T03:25:46.833Z,9.70
2023-04-07T03:28:14.855Z,9.60
2023-04-07T03:30:41.876Z,9.60
2023-04-07T03:33:09.519Z,9.50
2023-04-07T03:35:36.634Z,9.60
2023-04-07T03:38:03.975Z,9.60
2023-04-07T03:40:31.060Z,9.70
2023-04-07T03:42:58.638Z,9.60
2023-04-07T03:45:25.592Z,9.60
2023-04-07T03:47:54.266Z,9.50
2023-04-07T03:50:22.234Z,9.50
2023-04-07T03:53:14.571Z,9.40
2023-04-07T03:55:41.947Z,9.40
2023-04-07T03:58:17.616Z,9.40
2023-04-07T04:00:47.400Z,9.40
2023-04-07T04:03:14.572Z,9.30
2023-04-07T04:05:55.378Z,9.10
2023-04-07T04:08:29.298Z,9.00
2023-04-07T04:10:56.750Z,8.90
2023-04-07T04:13:27.853Z,8.80
2023-04-07T04:15:57.247Z,8.80
2023-04-07T04:18:24.354Z,8.80
2023-04-07T04:20:53.558Z,8.80
2023-04-07T04:23:21.279Z,8.90
2023-04-07T04:25:50.930Z,8.80
2023-04-07T04:28:19.042Z,8.90
2023-04-07T04:30:46.492Z,8.90
2023-04-07T04:33:13.798Z,8.90
2023-04-07T04:35:49.234Z,8.90
2023-04-07T04:38:20.741Z,8.90
2023-04-07T04:40:54.808Z,9.00
2023-04-07T04:43:27.103Z,9.00
2023-04-07T04:45:56.236Z,9.00
2023-04-07T04:48:27.378Z,8.90
2023-04-07T04:50:54.479Z,8.90
2023-04-07T04:53:22.406Z,8.80
2023-04-07T04:55:54.863Z,8.80
2023-04-07T04:58:25.139Z,8.80
2023-04-07T05:00:58.313Z,8.90
2023-04-07T05:03:34.251Z,8.90
2023-04-07T05:06:04.871Z,8.90
2023-04-07T05:08:33.030Z,9.00
2023-04-07T05:11:01.503Z,8.90
2023-04-07T05:13:34.408Z,8.80
2023-04-07T05:16:04.141Z,8.90
2023-04-07T05:18:31.578Z,8.90
2023-04-07T05:21:01.921Z,8.90
2023-04-07T05:23:29.965Z,8.90
2023-04-07T05:25:57.356Z,9.00
2023-04-07T05:28:25.523Z,8.90
2023-04-07T05:30:55.758Z,8.90
2023-04-07T05:33:28.167Z,8.90
2023-04-07T05:35:56.406Z,8.90
2023-04-07T05:38:23.977Z,9.00
2023-04-07T05:40:55.875Z,9.00
2023-04-07T05:43:30.956Z,9.00
2023-04-07T05:46:00.734Z,9.00
2023-04-07T05:48:28.401Z,9.10
2023-04-07T05:50:56.202Z,9.30
2023-04-07T05:53:23.389Z,9.30
2023-04-07T05:55:50.529Z,9.40
2023-04-07T05:58:39.508Z,9.40
2023-04-07T06:01:06.701Z,9.40
2023-04-07T06:03:33.848Z,9.50
2023-04-07T06:06:29.991Z,9.60
2023-04-07T06:08:57.123Z,9.60
2023-04-07T06:11:26.625Z,9.70
2023-04-07T06:13:53.654Z,9.70
2023-04-07T06:16:20.944Z,9.90
2023-04-07T06:18:47.965Z,10.00
2023-04-07T06:21:15.565Z,10.20
2023-04-07T06:23:42.660Z,10.30
2023-04-07T06:26:13.251Z,10.40
2023-04-07T06:28:40.796Z,10.50
2023-04-07T06:31:08.896Z,10.70
2023-04-07T06:33:37.311Z,10.80
2023-04-07T06:36:10.750Z,10.80
2023-04-07T06:38:38.387Z,10.90
2023-04-07T06:41:06.794Z,10.90
2023-04-07T06:43:33.742Z,10.90
2023-04-07T06:46:06.433Z,11.00
2023-04-07T06:48:33.402Z,11.10
2023-04-07T06:51:05.118Z,11.10
2023-04-07T06:53:32.161Z,11.10
2023-04-07T06:56:12.985Z,11.20
2023-04-07T06:58:40.589Z,11.30
2023-04-07T07:01:09.445Z,11.40
2023-04-07T07:28:48.626Z,12.50
2023-04-07T07:35:07.308Z,12.60
2023-04-07T07:43:09.850Z,13.00
2023-04-07T07:52:21.171Z,13.50
2023-04-07T07:54:52.376Z,13.60
2023-04-07T08:10:50.326Z,14.00
2023-04-07T08:27:04.730Z,14.60
2023-04-07T08:29:41.226Z,14.60
2023-04-07T08:35:17.700Z,14.50
2023-04-07T08:50:49.328Z,14.50
2023-04-07T09:59:41.319Z,15.60
2023-04-07T10:02:42.463Z,15.50
2023-04-07T10:11:58.315Z,15.70
2023-04-07T10:15:10.762Z,15.80
2023-04-07T10:24:55.371Z,15.60
2023-04-07T10:27:36.979Z,15.80
2023-04-07T10:30:12.282Z,15.80
2023-04-07T10:32:49.729Z,15.80
2023-04-07T10:35:18.845Z,15.70
2023-04-07T10:38:11.065Z,15.60
2023-04-07T10:40:41.072Z,15.70
2023-04-07T10:43:12.877Z,15.60
2023-04-07T10:45:53.422Z,15.50
2023-04-07T10:48:40.554Z,15.40
2023-04-07T11:30:03.037Z,15.40
2023-04-07T11:35:19.276Z,15.30
2023-04-07T11:50:41.665Z,15.60
2023-04-07T11:53:11.455Z,15.70
2023-04-07T11:55:42.990Z,15.70
2023-04-07T11:58:12.658Z,15.80
2023-04-07T12:04:00.122Z,16.10
2023-04-07T12:06:35.688Z,16.20
2023-04-07T12:12:06.508Z,16.10
2023-04-07T12:15:00.573Z,16.30
2023-04-07T12:17:27.905Z,16.40
2023-04-07T12:19:55.353Z,16.50
2023-04-07T12:22:22.453Z,16.50
2023-04-07T12:25:51.332Z,16.60
2023-04-07T12:28:22.657Z,16.80
2023-04-07T12:30:49.748Z,16.90
2023-04-07T12:33:17.281Z,16.90
2023-04-07T12:35:45.949Z,16.90
2023-04-07T12:41:16.558Z,16.90
2023-04-07T12:43:47.077Z,16.80
2023-04-07T12:50:09.066Z,16.60
2023-04-07T12:53:05.947Z,16.50
2023-04-07T12:55:33.780Z,16.40
2023-04-07T12:58:01.107Z,16.40
2023-04-07T13:00:28.300Z,16.40
2023-04-07T13:02:55.790Z,16.50
2023-04-07T13:05:24.146Z,16.40
2023-04-07T13:07:53.307Z,16.40
2023-04-07T13:10:21.514Z,16.40
2023-04-07T13:12:49.004Z,16.40
2023-04-07T13:15:16.138Z,16.40
2023-04-07T13:17:43.282Z,16.30
2023-04-07T13:20:11.022Z,16.30
2023-04-07T13:23:13.323Z,16.30
2023-04-07T13:26:31.596Z,16.30
2023-04-07T13:28:58.664Z,16.30
2023-04-07T13:31:25.808Z,16.30
2023-04-07T13:33:53.110Z,16.30
2023-04-07T13:36:23.153Z,16.20
2023-04-07T13:38:50.536Z,16.30
2023-04-07T13:41:17.562Z,16.20
2023-04-07T13:47:11.126Z,16.20
2023-04-07T13:49:38.232Z,16.20
2023-04-07T13:52:09.720Z,16.10
2023-04-07T13:54:37.255Z,16.10
2023-04-07T13:57:04.688Z,16.10
2023-04-07T13:59:31.731Z,16.00
2023-04-07T14:02:11.367Z,16.00
2023-04-07T14:04:38.970Z,16.00
2023-04-07T14:07:06.098Z,16.00
2023-04-07T14:09:33.306Z,16.00
2023-04-07T14:12:00.352Z,16.10
2023-04-07T14:14:30.092Z,16.10
2023-04-07T14:16:57.854Z,16.10
2023-04-07T14:19:24.734Z,16.10
2023-04-07T14:21:52.032Z,16.20
2023-04-07T14:24:19.099Z,16.20
2023-04-07T14:26:46.692Z,16.20
2023-04-07T14:29:14.154Z,16.20
2023-04-07T14:31:41.163Z,16.10
2023-04-07T14:34:08.861Z,16.10
2023-04-07T14:36:36.004Z,16.00
2023-04-07T14:39:03.936Z,16.00
2023-04-07T14:41:31.612Z,16.00
2023-04-07T14:43:58.746Z,16.10
2023-04-07T14:46:29.656Z,16.10
2023-04-07T14:49:03.134Z,16.10
2023-04-07T14:51:30.301Z,16.10
2023-04-07T14:53:57.727Z,16.00
2023-04-07T14:56:25.513Z,16.00
2023-04-07T14:58:55.524Z,15.80
2023-04-07T15:01:22.679Z,15.70
2023-04-07T15:03:52.188Z,15.70
2023-04-07T15:06:19.954Z,15.70
2023-04-07T15:08:47.239Z,15.70
2023-04-07T15:11:14.161Z,15.70
2023-04-07T15:13:41.141Z,15.70
2023-04-07T15:16:12.799Z,15.70
2023-04-07T15:18:42.587Z,15.70
2023-04-07T15:21:10.733Z,15.70
2023-04-07T15:23:43.208Z,15.70
2023-04-07T15:26:11.997Z,15.70
2023-04-07T15:28:39.459Z,15.70
2023-04-07T15:31:10.076Z,15.70
2023-04-07T15:33:39.248Z,15.60
2023-04-07T15:36:08.371Z,15.70
2023-04-07T15:38:35.859Z,15.60
2023-04-07T15:41:02.836Z,15.60
2023-04-07T15:43:29.903Z,15.50
2023-04-07T15:45:57.059Z,15.40
2023-04-07T15:48:24.332Z,15.40
2023-04-07T15:50:52.883Z,15.40
2023-04-07T15:53:19.978Z,15.50
2023-04-07T15:55:48.515Z,15.40
2023-04-07T15:58:16.301Z,15.40
2023-04-07T16:00:43.616Z,15.40
2023-04-07T16:03:10.815Z,15.40
2023-04-07T16:05:38.571Z,15.50
2023-04-07T16:08:08.817Z,15.50
2023-04-07T18:09:05.975Z,12.90
2023-04-07T18:15:15.904Z,12.80
2023-04-07T19:05:55.314Z,11.90
2023-04-07T19:08:22.513Z,11.90
2023-04-07T19:10:51.060Z,11.70
2023-04-07T19:13:20.552Z,11.70
2023-04-07T19:15:51.039Z,11.70
2023-04-07T19:18:18.838Z,11.70
2023-04-07T19:20:51.754Z,11.50
2023-04-07T19:23:18.778Z,11.30
2023-04-07T19:25:47.278Z,11.10
2023-04-07T19:28:15.563Z,11.00
2023-04-07T19:30:43.648Z,10.90
2023-04-07T19:33:12.105Z,10.80
2023-04-07T19:35:43.635Z,10.80
2023-04-07T19:38:10.754Z,10.80
2023-04-07T19:40:37.783Z,10.80
2023-04-07T19:43:04.890Z,10.70
2023-04-07T19:45:31.905Z,10.70
2023-04-07T19:48:00.235Z,10.90
2023-04-07T19:50:28.536Z,11.00
2023-04-07T19:52:55.663Z,11.10
2023-04-07T19:55:22.741Z,11.00
2023-04-07T19:57:49.831Z,10.90
2023-04-07T20:00:17.032Z,10.80
2023-04-07T20:02:50.756Z,10.80
2023-04-07T20:05:19.815Z,10.80
2023-04-07T20:07:49.067Z,10.80
2023-04-07T20:10:16.195Z,10.90
2023-04-07T20:12:43.164Z,10.90
2023-04-07T20:15:10.477Z,10.90
2023-04-07T20:17:37.582Z,10.80
2023-04-07T20:20:07.743Z,10.80
2023-04-07T20:22:35.450Z,10.80
2023-04-07T20:25:05.510Z,10.90
2023-04-07T20:27:33.559Z,10.80
2023-04-07T20:30:02.220Z,10.70
2023-04-07T20:32:29.468Z,10.80
2023-04-07T20:34:56.454Z,10.70
2023-04-07T20:37:23.422Z,10.70
2023-04-07T20:39:50.434Z,10.70
2023-04-07T20:42:19.528Z,10.80
2023-04-07T20:44:48.729Z,10.80
2023-04-07T20:47:15.707Z,10.70
2023-04-07T20:49:43.963Z,10.70
2023-04-07T20:52:11.219Z,10.70
2023-04-07T20:54:38.410Z,10.70
2023-04-07T20:57:05.464Z,10.60
2023-04-07T20:59:32.925Z,10.60
2023-04-07T21:02:00.007Z,10.60
2023-04-07T21:04:27.486Z,10.60
2023-04-07T21:06:56.643Z,10.50
2023-04-07T21:09:23.761Z,10.60
2023-04-07T21:11:50.811Z,10.60
2023-04-07T21:14:17.821Z,10.60
2023-04-07T21:16:44.687Z,10.60
2023-04-07T21:19:11.886Z,10.50
2023-04-07T21:21:38.835Z,10.50
2023-04-07T21:24:05.929Z,10.40
2023-04-07T21:26:32.979Z,10.50
2023-04-07T21:29:00.009Z,10.40
2023-04-07T21:31:27.062Z,10.50
2023-04-07T21:33:54.198Z,10.40
2023-04-07T21:36:21.379Z,10.40
2023-04-07T21:38:48.486Z,10.40
2023-04-07T21:41:15.648Z,10.40
2023-04-07T21:43:42.616Z,10.40
2023-04-07T21:46:09.762Z,10.40
2023-04-07T21:48:36.875Z,10.40
2023-04-07T21:51:08.123Z,10.40
2023-04-07T21:53:38.119Z,10.40
2023-04-07T21:56:05.379Z,10.30
2023-04-07T21:58:32.392Z,10.40
2023-04-07T22:01:00.013Z,10.50
2023-04-07T22:03:29.484Z,10.40
2023-04-07T22:06:01.185Z,10.40
2023-04-07T22:08:28.393Z,10.40
2023-04-07T22:10:55.497Z,10.40
2023-04-07T22:13:22.383Z,10.50
2023-04-07T22:15:50.243Z,10.40
2023-04-07T22:18:17.267Z,10.40
2023-04-07T22:20:45.190Z,10.40
2023-04-07T22:23:12.242Z,10.50
2023-04-07T22:25:39.122Z,10.40
2023-04-07T22:28:06.147Z,10.50
2023-04-07T22:30:33.199Z,10.50
2023-04-07T22:33:00.192Z,10.40
2023-04-07T22:35:27.365Z,10.30
2023-04-07T22:37:54.497Z,10.40
2023-04-07T22:40:21.890Z,10.30
2023-04-07T22:42:48.907Z,10.40
2023-04-07T22:45:16.030Z,10.30
2023-04-07T22:47:43.230Z,10.40
2023-04-07T22:50:10.620Z,10.30
2023-04-07T22:52:37.651Z,10.30
2023-04-07T22:55:05.182Z,10.30
2023-04-07T22:57:32.296Z,10.30
2023-04-07T22:59:59.246Z,10.30
2023-04-07T23:02:26.891Z,10.40
2023-04-07T23:04:55.302Z,10.40
2023-04-07T23:07:22.243Z,10.30
2023-04-07T23:09:51.087Z,10.30
2023-04-07T23:12:19.016Z,10.30
2023-04-07T23:14:46.019Z,10.40
2023-04-07T23:17:13.193Z,10.30
2023-04-07T23:19:40.343Z,10.10
2023-04-07T23:22:07.328Z,10.00
2023-04-07T23:24:34.251Z,9.90
2023-04-07T23:27:02.005Z,9.80
2023-04-07T23:29:28.988Z,9.90
2023-04-07T23:31:55.981Z,9.80
2023-04-07T23:34:22.902Z,9.80
2023-04-07T23:36:49.827Z,9.60
2023-04-07T23:39:16.866Z,9.50
2023-04-07T23:41:44.089Z,9.50
2023-04-07T23:44:11.202Z,9.50
2023-04-07T23:46:38.252Z,9.50
2023-04-07T23:49:05.130Z,9.40
2023-04-07T23:51:32.137Z,9.40
2023-04-07T23:53:59.241Z,9.40
2023-04-07T23:56:26.287Z,9.20
2023-04-07T23:58:53.437Z,9.20
